createdAt,value
2022-09-23T00:00:08.890Z,101617.47
2022-09-23T00:02:41.404Z,101615.81
2022-09-23T00:05:12.938Z,101604.22
2022-09-23T00:07:44.929Z,101604.56
2022-09-23T00:10:16.431Z,101603.91
2022-09-23T00:12:48.397Z,101607.91
2022-09-23T00:15:19.905Z,101608.25
2022-09-23T00:17:51.742Z,101596.84
2022-09-23T00:20:23.243Z,101586.75
2022-09-23T00:22:55.069Z,101593.22
2022-09-23T00:25:27.425Z,101589.75
2022-09-23T00:27:59.040Z,101591.75
2022-09-23T00:30:31.211Z,101590.28
2022-09-23T00:33:03.091Z,101586.81
2022-09-23T00:35:34.604Z,101588.78
2022-09-23T00:38:06.548Z,101586.50
2022-09-23T00:40:38.115Z,101573.41
2022-09-23T00:43:10.097Z,101572.75
2022-09-23T00:45:41.706Z,101577.41
2022-09-23T00:48:13.237Z,101576.41
2022-09-23T00:50:45.167Z,101567.63
2022-09-23T00:53:16.667Z,101571.13
2022-09-23T00:55:49.296Z,101573.06
2022-09-23T00:58:20.775Z,101574.75
2022-09-23T01:00:53.847Z,101577.75
2022-09-23T01:03:25.416Z,101564.69
2022-09-23T01:05:57.282Z,101573.13
2022-09-23T01:08:28.862Z,101563.22
2022-09-23T01:11:01.141Z,101567.69
2022-09-23T01:13:32.644Z,101560.94
2022-09-23T01:16:04.422Z,101558.28
2022-09-23T01:18:35.961Z,101551.00
2022-09-23T01:21:07.844Z,101552.00
2022-09-23T01:23:39.369Z,101553.81
2022-09-23T01:26:11.195Z,101542.41
2022-09-23T01:28:42.684Z,101546.38
2022-09-23T01:31:14.623Z,101546.38
2022-09-23T01:33:46.197Z,101547.38
2022-09-23T01:36:19.367Z,101545.72
2022-09-23T01:38:50.943Z,101546.38
2022-09-23T01:41:22.984Z,101542.41
2022-09-23T01:43:54.798Z,101542.41
2022-09-23T01:46:28.288Z,101539.78
2022-09-23T01:48:59.787Z,101534.63
2022-09-23T01:51:31.639Z,101535.44
2022-09-23T01:54:03.132Z,101542.06
2022-09-23T01:56:34.969Z,101546.53
2022-09-23T01:59:06.462Z,101530.00
2022-09-23T02:01:38.301Z,101532.66
2022-09-23T02:04:09.846Z,101538.78
2022-09-23T02:06:41.863Z,101527.53
2022-09-23T02:09:13.397Z,101534.84
2022-09-23T02:11:46.400Z,101527.91
2022-09-23T02:14:17.931Z,101520.13
2022-09-23T02:16:49.929Z,101517.97
2022-09-23T02:19:21.501Z,101524.59
2022-09-23T02:21:53.354Z,101519.31
2022-09-23T02:24:25.844Z,101519.94
2022-09-23T02:26:57.694Z,101516.16
2022-09-23T02:29:29.744Z,101511.03
2022-09-23T02:32:01.592Z,101509.53
2022-09-23T02:34:33.509Z,101506.72
2022-09-23T02:37:05.015Z,101500.78
2022-09-23T02:39:37.524Z,101502.78
2022-09-23T02:42:10.001Z,101499.47
2022-09-23T02:44:41.547Z,101496.16
2022-09-23T02:47:13.044Z,101490.88
2022-09-23T02:49:44.851Z,101490.06
2022-09-23T02:52:17.375Z,101494.19
2022-09-23T02:54:49.179Z,101487.25
2022-09-23T02:57:20.786Z,101485.59
2022-09-23T02:59:52.824Z,101483.94
2022-09-23T03:02:25.286Z,101480.97
2022-09-23T03:04:58.982Z,101474.34
2022-09-23T03:07:33.126Z,101479.81
2022-09-23T03:10:05.003Z,101473.03
2022-09-23T03:12:36.490Z,101476.69
2022-09-23T03:15:08.306Z,101473.22
2022-09-23T03:17:39.816Z,101473.22
2022-09-23T03:20:11.647Z,101469.25
2022-09-23T03:22:43.152Z,101466.13
2022-09-23T03:25:14.963Z,101460.16
2022-09-23T03:27:46.464Z,101466.44
2022-09-23T03:30:18.397Z,101458.03
2022-09-23T03:32:51.152Z,101465.13
2022-09-23T03:35:23.062Z,101452.56
2022-09-23T03:37:54.569Z,101458.69
2022-09-23T03:40:26.569Z,101459.03
2022-09-23T03:42:58.188Z,101461.97
2022-09-23T03:45:30.091Z,101461.47
2022-09-23T03:48:01.622Z,101451.91
2022-09-23T03:50:35.774Z,101452.06
2022-09-23T03:53:07.345Z,101450.41
2022-09-23T03:55:39.667Z,101175.63
2022-09-23T03:58:11.269Z,101449.25
2022-09-23T04:00:45.436Z,101449.75
2022-09-23T04:03:19.050Z,101449.09
2022-09-23T04:05:50.585Z,101437.72
2022-09-23T04:08:22.071Z,101435.06
2022-09-23T04:10:54.927Z,101440.34
2022-09-23T04:13:26.570Z,101433.41
2022-09-23T04:15:58.527Z,101432.09
2022-09-23T04:18:31.289Z,101429.28
2022-09-23T04:21:03.163Z,101425.66
2022-09-23T04:23:34.715Z,101428.47
2022-09-23T04:26:06.291Z,101426.81
2022-09-23T04:28:38.166Z,101424.00
2022-09-23T04:31:09.962Z,101437.38
2022-09-23T04:33:41.879Z,101426.81
2022-09-23T04:36:13.391Z,101431.94
2022-09-23T04:38:45.575Z,101428.47
2022-09-23T04:41:17.081Z,101428.47
2022-09-23T04:43:48.901Z,101417.91
2022-09-23T04:46:20.764Z,101424.16
2022-09-23T04:48:52.693Z,101423.66
2022-09-23T04:51:24.743Z,101424.16
2022-09-23T04:53:56.687Z,101421.34
2022-09-23T04:56:28.172Z,101424.97
2022-09-23T04:59:01.805Z,101426.47
2022-09-23T05:01:34.555Z,101427.97
2022-09-23T05:04:06.615Z,101421.88
2022-09-23T05:06:38.268Z,101423.97
2022-09-23T05:09:10.144Z,101428.63
2022-09-23T05:11:41.732Z,101418.56
2022-09-23T05:14:13.283Z,101423.34
2022-09-23T05:16:44.838Z,101417.91
2022-09-23T05:19:16.689Z,101423.34
2022-09-23T05:21:48.210Z,101421.69
2022-09-23T05:24:20.056Z,101418.69
2022-09-23T05:26:51.906Z,101426.63
2022-09-23T05:29:23.420Z,101421.50
2022-09-23T05:31:54.956Z,101418.69
2022-09-23T05:34:26.786Z,101225.13
2022-09-23T05:36:58.376Z,101416.81
2022-09-23T05:39:30.221Z,101414.63
2022-09-23T05:42:01.715Z,101413.81
2022-09-23T05:44:33.526Z,101411.31
2022-09-23T05:47:05.061Z,101408.94
2022-09-23T05:49:58.203Z,101422.50
2022-09-23T05:52:28.520Z,101420.56
2022-09-23T05:55:00.322Z,101412.88
2022-09-23T05:57:31.885Z,101401.63
2022-09-23T06:00:03.438Z,101413.22
2022-09-23T06:02:35.000Z,101416.09
2022-09-23T06:05:06.923Z,101415.34
2022-09-23T06:07:38.928Z,101418.38
2022-09-23T06:10:10.763Z,101417.72
2022-09-23T06:12:44.477Z,101413.25
2022-09-23T06:15:16.306Z,101420.41
2022-09-23T06:17:47.789Z,101414.72
2022-09-23T06:20:19.784Z,101413.69
2022-09-23T06:22:58.655Z,101405.75
2022-09-23T06:25:30.654Z,101413.09
2022-09-23T06:28:02.154Z,101416.13
2022-09-23T06:30:35.185Z,101412.53
2022-09-23T06:33:06.737Z,101418.38
2022-09-23T06:35:38.582Z,101413.75
2022-09-23T06:38:10.126Z,101414.34
2022-09-23T06:40:42.345Z,101414.59
2022-09-23T06:43:13.890Z,101420.88
2022-09-23T06:45:45.910Z,101411.22
2022-09-23T06:48:17.416Z,101411.13
2022-09-23T06:50:49.580Z,101409.19
2022-09-23T06:53:23.647Z,101414.41
2022-09-23T06:55:55.900Z,101420.22
2022-09-23T06:58:27.602Z,101417.78
2022-09-23T07:00:59.523Z,101415.34
2022-09-23T07:03:31.882Z,101415.00
2022-09-23T07:06:03.772Z,101423.28
2022-09-23T07:08:35.305Z,101422.47
2022-09-23T07:11:07.183Z,101423.25
2022-09-23T07:13:38.944Z,101420.84
2022-09-23T07:16:11.124Z,101427.81
2022-09-23T07:18:43.125Z,101430.25
2022-09-23T07:21:15.118Z,101426.53
2022-09-23T07:23:47.267Z,101427.34
2022-09-23T07:26:19.087Z,101429.19
2022-09-23T07:28:50.948Z,101437.38
2022-09-23T07:31:35.651Z,101431.00
2022-09-23T07:34:11.979Z,101430.16
2022-09-23T07:36:43.569Z,101434.41
2022-09-23T07:39:15.437Z,101430.59
2022-09-23T07:41:46.925Z,101431.78
2022-09-23T07:44:19.552Z,101425.03
2022-09-23T07:46:51.183Z,101418.34
2022-09-23T07:49:23.533Z,101420.84
2022-09-23T07:51:55.144Z,101421.16
2022-09-23T07:54:30.035Z,101425.06
2022-09-23T07:57:01.562Z,101422.38
2022-09-23T07:59:33.669Z,101423.25
2022-09-23T08:02:05.224Z,101420.72
2022-09-23T08:04:37.041Z,101415.28
2022-09-23T08:07:09.291Z,101412.38
2022-09-23T08:09:41.965Z,101412.44
2022-09-23T08:12:16.019Z,101413.91
2022-09-23T08:14:48.179Z,101412.34
2022-09-23T08:17:19.747Z,101409.41
2022-09-23T08:19:51.517Z,101411.41
2022-09-23T08:22:23.007Z,101402.38
2022-09-23T08:24:56.382Z,101403.78
2022-09-23T08:27:29.303Z,101409.56
2022-09-23T08:30:01.149Z,101408.44
2022-09-23T08:32:32.892Z,101405.97
2022-09-23T08:35:04.721Z,101407.56
2022-09-23T08:37:36.214Z,101404.63
2022-09-23T08:40:08.038Z,101395.63
2022-09-23T08:42:39.560Z,101392.44
2022-09-23T08:45:11.516Z,101393.78
2022-09-23T08:47:43.750Z,101386.22
2022-09-23T08:50:15.471Z,101396.28
2022-09-23T08:52:47.169Z,101387.53
2022-09-23T08:55:19.798Z,101384.16
2022-09-23T08:58:14.045Z,101382.50
2022-09-23T09:00:43.316Z,101381.78
2022-09-23T09:03:14.813Z,101380.69
2022-09-23T09:05:53.893Z,101379.69
2022-09-23T09:08:26.438Z,101374.56
2022-09-23T09:10:58.142Z,101376.66
2022-09-23T09:13:30.379Z,101377.19
2022-09-23T09:16:05.936Z,101380.91
2022-09-23T09:18:38.050Z,101370.34
2022-09-23T09:21:09.957Z,101370.97
2022-09-23T09:23:41.842Z,101377.22
2022-09-23T09:26:13.327Z,101373.75
2022-09-23T09:28:45.287Z,101371.16
2022-09-23T09:31:16.862Z,101366.31
2022-09-23T09:33:48.665Z,101365.00
2022-09-23T09:36:20.155Z,101356.03
2022-09-23T09:38:52.048Z,101359.06
2022-09-23T09:41:24.651Z,101354.13
2022-09-23T09:44:01.008Z,101348.00
2022-09-23T09:46:34.065Z,101354.47
2022-09-23T09:49:06.160Z,101346.13
2022-09-23T09:51:39.602Z,101333.75
2022-09-23T09:54:12.550Z,101335.09
2022-09-23T09:56:44.670Z,101333.84
2022-09-23T09:59:16.755Z,101335.38
2022-09-23T10:01:48.274Z,101326.78
2022-09-23T10:04:20.251Z,101323.38
2022-09-23T10:06:51.764Z,101309.47
2022-09-23T10:09:23.250Z,101311.00
2022-09-23T10:11:55.788Z,101313.81
2022-09-23T10:14:29.466Z,101315.31
2022-09-23T10:17:01.795Z,101313.78
2022-09-23T10:19:33.629Z,101306.00
2022-09-23T10:22:06.236Z,101315.88
2022-09-23T10:24:38.021Z,101312.06
2022-09-23T10:27:09.535Z,101297.03
2022-09-23T10:29:41.423Z,101308.91
2022-09-23T10:32:13.264Z,101299.34
2022-09-23T10:34:45.207Z,101301.16
2022-09-23T10:37:17.021Z,101303.44
2022-09-23T10:40:07.774Z,101295.59
2022-09-23T10:42:58.345Z,101301.59
2022-09-23T10:45:48.674Z,101299.44
2022-09-23T10:48:20.236Z,101303.56
2022-09-23T10:50:51.771Z,101290.84
2022-09-23T10:53:23.611Z,101288.66
2022-09-23T10:55:55.143Z,101283.22
2022-09-23T10:58:27.266Z,101282.19
2022-09-23T11:00:58.896Z,101278.06
2022-09-23T11:03:31.960Z,101281.31
2022-09-23T11:06:03.456Z,101281.84
2022-09-23T11:08:36.740Z,101281.16
2022-09-23T11:11:08.826Z,101274.59
2022-09-23T11:13:40.957Z,101272.13
2022-09-23T11:16:12.528Z,101267.78
2022-09-23T11:18:44.490Z,101271.97
2022-09-23T11:21:20.970Z,101267.63
2022-09-23T11:23:52.515Z,101261.72
2022-09-23T11:26:24.742Z,101258.59
2022-09-23T11:28:57.740Z,101247.22
2022-09-23T11:31:29.328Z,101242.66
2022-09-23T11:34:01.662Z,101240.78
2022-09-23T11:36:33.163Z,101238.53
2022-09-23T11:39:05.256Z,101230.97
2022-09-23T11:41:36.767Z,101233.44
2022-09-23T11:44:09.019Z,101223.94
2022-09-23T11:46:40.524Z,101214.22
2022-09-23T11:49:12.874Z,101216.91
2022-09-23T11:51:44.446Z,101215.75
2022-09-23T11:54:20.371Z,101215.81
2022-09-23T11:56:52.347Z,101213.41
2022-09-23T11:59:34.542Z,101213.13
2022-09-23T12:02:19.195Z,101203.13
2022-09-23T12:04:57.649Z,101202.03
2022-09-23T12:07:30.259Z,101194.69
2022-09-23T12:10:01.766Z,101194.72
2022-09-23T12:12:33.746Z,101200.13
2022-09-23T12:15:05.321Z,101189.84
2022-09-23T12:17:37.152Z,101193.91
2022-09-23T12:20:09.244Z,101187.09
2022-09-23T12:22:41.240Z,101181.72
2022-09-23T12:25:13.725Z,101180.13
2022-09-23T12:27:46.039Z,101187.63
2022-09-23T12:30:17.551Z,101177.16
2022-09-23T12:32:49.077Z,101173.63
2022-09-23T12:35:21.815Z,101170.94
2022-09-23T12:37:53.311Z,101167.13
2022-09-23T12:40:24.942Z,101163.34
2022-09-23T12:42:56.842Z,101167.66
2022-09-23T12:45:31.409Z,101159.53
2022-09-23T12:48:06.107Z,101158.75
2022-09-23T12:50:37.621Z,101160.63
2022-09-23T12:53:09.478Z,101153.03
2022-09-23T12:55:41.516Z,101154.09
2022-09-23T12:58:13.318Z,101145.97
2022-09-23T13:00:44.814Z,101148.66
2022-09-23T13:03:35.543Z,101145.47
2022-09-23T13:06:25.792Z,101138.72
2022-09-23T13:08:57.665Z,101145.41
2022-09-23T13:11:29.209Z,101135.69
2022-09-23T13:14:00.810Z,101118.97
2022-09-23T13:16:32.345Z,101122.72
2022-09-23T13:19:03.989Z,101122.41
2022-09-23T13:21:35.487Z,101114.34
2022-09-23T13:24:07.145Z,101114.13
2022-09-23T13:26:38.708Z,101109.00
2022-09-23T13:29:10.298Z,101112.38
2022-09-23T13:31:41.823Z,101114.66
2022-09-23T13:34:13.439Z,101110.28
2022-09-23T13:36:44.961Z,101102.38
2022-09-23T13:39:16.944Z,101105.44
2022-09-23T13:41:48.527Z,101098.66
2022-09-23T13:44:20.414Z,101088.69
2022-09-23T13:46:51.913Z,101087.31
2022-09-23T13:49:24.677Z,101083.25
2022-09-23T13:51:56.587Z,101072.41
2022-09-23T13:54:28.841Z,101073.50
2022-09-23T13:57:00.822Z,101075.16
2022-09-23T13:59:32.319Z,101072.97
2022-09-23T14:02:04.506Z,101054.00
2022-09-23T14:04:36.077Z,101065.41
2022-09-23T14:07:07.598Z,101062.09
2022-09-23T14:09:39.083Z,101060.22
2022-09-23T14:12:10.700Z,101057.19
2022-09-23T14:14:42.179Z,101056.13
2022-09-23T14:17:14.128Z,101055.03
2022-09-23T14:19:45.608Z,101052.97
2022-09-23T14:22:17.240Z,101052.13
2022-09-23T14:24:48.808Z,101039.38
2022-09-23T14:27:20.443Z,101043.41
2022-09-23T14:29:51.981Z,101035.84
2022-09-23T14:32:25.322Z,101031.09
2022-09-23T14:34:56.829Z,101031.47
2022-09-23T14:37:47.170Z,101027.84
2022-09-23T14:40:18.795Z,101029.25
2022-09-23T14:42:52.455Z,101037.38
2022-09-23T14:45:24.012Z,101031.13
2022-09-23T14:47:55.574Z,101025.31
2022-09-23T14:50:40.434Z,101028.53
2022-09-23T14:53:12.408Z,101019.13
2022-09-23T14:55:43.905Z,101022.69
2022-09-23T14:58:15.772Z,101019.88
2022-09-23T15:00:47.971Z,101020.78
2022-09-23T15:03:21.377Z,101018.09
2022-09-23T15:05:52.982Z,101019.16
2022-09-23T15:08:25.459Z,101017.25
2022-09-23T15:10:58.411Z,101023.47
2022-09-23T15:13:30.258Z,101011.28
2022-09-23T15:16:01.917Z,101006.13
2022-09-23T15:18:34.298Z,101007.19
2022-09-23T15:21:05.880Z,101007.59
2022-09-23T15:23:38.000Z,101006.50
2022-09-23T15:26:09.484Z,101002.97
2022-09-23T15:28:41.430Z,101009.16
2022-09-23T15:31:13.126Z,101005.84
2022-09-23T15:33:45.043Z,100995.31
2022-09-23T15:36:16.550Z,101007.41
2022-09-23T15:38:48.386Z,100996.59
2022-09-23T15:41:20.017Z,100998.75
2022-09-23T15:43:51.924Z,101002.22
2022-09-23T15:46:23.948Z,101002.72
2022-09-23T15:48:58.586Z,101005.13
2022-09-23T15:51:30.531Z,101005.38
2022-09-23T15:54:02.359Z,100996.72
2022-09-23T15:56:33.873Z,100989.84
2022-09-23T15:59:06.346Z,100990.56
2022-09-23T16:01:37.935Z,100988.31
2022-09-23T16:04:09.869Z,100997.44
2022-09-23T16:06:43.225Z,100986.63
2022-09-23T16:09:15.117Z,100994.09
2022-09-23T16:11:47.087Z,100994.03
2022-09-23T16:14:18.896Z,100995.63
2022-09-23T16:16:50.469Z,100994.53
2022-09-23T16:19:22.566Z,100993.19
2022-09-23T16:21:54.128Z,100989.66
2022-09-23T16:24:28.165Z,100991.25
2022-09-23T16:27:01.019Z,100987.44
2022-09-23T16:29:32.553Z,100984.41
2022-09-23T16:32:04.552Z,100987.31
2022-09-23T16:34:36.112Z,100984.81
2022-09-23T16:37:08.523Z,100990.94
2022-09-23T16:39:40.079Z,100986.50
2022-09-23T16:42:12.966Z,100979.44
2022-09-23T16:44:44.502Z,100975.00
2022-09-23T16:47:16.412Z,100975.38
2022-09-23T16:49:47.930Z,100977.88
2022-09-23T16:52:19.783Z,100973.91
2022-09-23T16:54:51.286Z,100971.28
2022-09-23T16:57:22.954Z,100978.56
2022-09-23T17:00:13.352Z,100972.91
2022-09-23T17:03:03.904Z,100972.94
2022-09-23T17:05:35.444Z,100969.19
2022-09-23T17:08:07.990Z,100961.78
2022-09-23T17:10:39.649Z,100960.78
2022-09-23T17:13:11.551Z,100967.03
2022-09-23T17:15:44.069Z,100968.63
2022-09-23T17:18:19.448Z,100964.38
2022-09-23T17:20:51.158Z,100957.97
2022-09-23T17:23:23.015Z,100958.09
2022-09-23T17:25:54.499Z,100955.22
2022-09-23T17:28:26.306Z,100956.88
2022-09-23T17:30:58.090Z,100957.22
2022-09-23T17:33:30.171Z,100962.63
2022-09-23T17:36:02.267Z,100957.63
2022-09-23T17:38:34.833Z,100959.28
2022-09-23T17:41:06.359Z,100955.88
2022-09-23T17:43:38.817Z,100953.34
2022-09-23T17:46:10.752Z,100960.91
2022-09-23T17:48:43.555Z,100964.53
2022-09-23T17:51:15.130Z,100958.47
2022-09-23T17:53:47.004Z,100962.88
2022-09-23T17:56:18.571Z,100964.63
2022-09-23T17:58:50.447Z,100959.72
2022-09-23T18:01:22.370Z,100966.59
2022-09-23T18:03:54.379Z,100974.03
2022-09-23T18:06:25.900Z,100970.16
2022-09-23T18:08:57.574Z,100973.78
2022-09-23T18:11:29.088Z,100971.44
2022-09-23T18:14:00.894Z,100970.38
2022-09-23T18:16:32.473Z,100974.09
2022-09-23T18:19:04.540Z,100969.00
2022-09-23T18:21:36.548Z,100968.75
2022-09-23T18:24:31.172Z,100967.94
2022-09-23T18:27:00.284Z,100969.34
2022-09-23T18:29:31.904Z,100967.47
2022-09-23T18:32:04.115Z,100970.38
2022-09-23T18:34:35.935Z,100970.97
2022-09-23T18:37:15.250Z,100964.81
2022-09-23T18:39:48.598Z,100965.47
2022-09-23T18:42:20.527Z,100959.41
2022-09-23T18:44:56.244Z,100961.25
2022-09-23T18:47:46.876Z,100959.41
2022-09-23T18:50:36.955Z,100956.72
2022-09-23T18:53:08.626Z,100958.22
2022-09-23T18:55:40.725Z,100960.31
2022-09-23T18:58:14.167Z,100959.72
2022-09-23T19:00:45.750Z,100965.53
2022-09-23T19:03:17.807Z,100960.28
2022-09-23T19:05:49.551Z,100962.84
2022-09-23T19:08:21.391Z,100959.66
2022-09-23T19:10:55.653Z,100958.69
2022-09-23T19:13:28.809Z,100963.69
2022-09-23T19:16:00.867Z,100962.97
2022-09-23T19:18:33.736Z,100961.44
2022-09-23T19:21:07.124Z,100959.66
2022-09-23T19:23:39.045Z,100981.72
2022-09-23T19:26:10.595Z,100954.81
2022-09-23T19:28:42.372Z,100955.28
2022-09-23T19:31:16.678Z,100950.22
2022-09-23T19:33:50.401Z,100947.88
2022-09-23T19:36:22.011Z,100942.75
2022-09-23T19:38:54.478Z,100943.66
2022-09-23T19:41:26.642Z,100945.50
2022-09-23T19:44:03.031Z,100937.34
2022-09-23T19:46:34.863Z,100946.81
2022-09-23T19:49:06.430Z,100942.50
2022-09-23T19:51:39.070Z,100937.03
2022-09-23T19:54:11.924Z,100940.09
2022-09-23T19:56:43.947Z,100945.91
2022-09-23T19:59:18.745Z,100942.84
2022-09-23T20:01:51.168Z,100940.03
2022-09-23T20:04:22.809Z,100758.09
2022-09-23T20:06:54.327Z,100935.59
2022-09-23T20:09:27.211Z,100935.22
2022-09-23T20:12:02.805Z,100936.88
2022-09-23T20:14:34.331Z,100939.41
2022-09-23T20:17:06.239Z,100938.56
2022-09-23T20:19:37.720Z,100932.66
2022-09-23T20:22:26.682Z,100932.06
2022-09-23T20:25:01.996Z,100926.41
2022-09-23T20:27:34.884Z,100930.09
2022-09-23T20:30:06.757Z,100923.56
2022-09-23T20:32:41.654Z,100919.94
2022-09-23T20:35:16.296Z,100921.38
2022-09-23T20:37:48.201Z,100915.84
2022-09-23T20:40:22.450Z,100915.03
2022-09-23T20:42:54.847Z,100915.03
2022-09-23T20:45:26.363Z,100913.19
2022-09-23T20:48:00.071Z,100914.22
2022-09-23T20:50:31.553Z,100914.41
2022-09-23T20:53:03.431Z,100918.94
2022-09-23T20:55:34.980Z,100916.69
2022-09-23T20:58:06.649Z,100926.13
2022-09-23T21:00:38.240Z,100917.06
2022-09-23T21:03:10.633Z,100923.66
2022-09-23T21:05:42.472Z,100910.31
2022-09-23T21:08:14.286Z,100915.44
2022-09-23T21:10:46.305Z,100906.41
2022-09-23T21:13:17.855Z,100904.56
2022-09-23T21:15:49.443Z,100905.22
2022-09-23T21:18:22.673Z,100904.78
2022-09-23T21:20:54.319Z,100901.88
2022-09-23T21:23:26.733Z,100901.69
2022-09-23T21:25:58.228Z,100895.53
2022-09-23T21:28:30.228Z,100898.22
2022-09-23T21:31:02.293Z,100895.09
2022-09-23T21:33:36.590Z,100781.47
2022-09-23T21:36:08.496Z,100901.25
2022-09-23T21:38:39.990Z,100886.28
2022-09-23T21:41:11.972Z,100889.97
2022-09-23T21:43:43.517Z,100894.66
2022-09-23T21:46:15.685Z,100892.22
2022-09-23T21:48:48.250Z,100889.31
2022-09-23T21:51:20.040Z,100883.53
2022-09-23T21:53:52.027Z,100887.69
2022-09-23T21:56:23.871Z,100885.63
2022-09-23T21:58:55.543Z,100886.59
2022-09-23T22:01:27.579Z,100886.81
2022-09-23T22:03:59.283Z,100890.06
2022-09-23T22:06:30.917Z,100880.00
2022-09-23T22:09:02.427Z,100882.66
2022-09-23T22:11:52.826Z,100885.19
2022-09-23T22:14:27.280Z,100886.22
2022-09-23T22:16:59.005Z,100883.91
2022-09-23T22:19:35.175Z,100889.69
2022-09-23T22:22:07.930Z,100880.72
2022-09-23T22:24:39.483Z,100877.00
2022-09-23T22:27:11.321Z,100882.34
2022-09-23T22:30:01.415Z,100695.22
2022-09-23T22:32:42.331Z,100875.81
2022-09-23T22:35:13.898Z,100874.00
2022-09-23T22:37:45.743Z,100871.13
2022-09-23T22:40:17.405Z,100871.13
2022-09-23T22:42:50.051Z,100864.38
2022-09-23T22:45:21.606Z,100862.06
2022-09-23T22:47:53.425Z,100864.97
2022-09-23T22:50:24.955Z,100854.28
2022-09-23T22:52:56.816Z,100855.09
2022-09-23T22:55:28.401Z,100852.88
2022-09-23T22:58:15.324Z,100855.78
2022-09-23T23:00:55.817Z,100858.44
2022-09-23T23:03:27.758Z,100857.84
2022-09-23T23:05:59.297Z,100859.47
2022-09-23T23:08:31.275Z,100861.75
2022-09-23T23:11:02.805Z,100862.03
2022-09-23T23:13:34.380Z,100855.91
2022-09-23T23:16:06.005Z,100851.59
2022-09-23T23:18:40.782Z,100853.22
2022-09-23T23:21:15.288Z,100850.19
2022-09-23T23:23:47.276Z,100847.97
2022-09-23T23:26:20.051Z,100841.81
2022-09-23T23:28:51.574Z,100845.50
2022-09-23T23:31:23.171Z,100837.72
2022-09-23T23:33:55.233Z,100841.06
2022-09-23T23:36:26.783Z,100841.06
2022-09-23T23:38:58.615Z,100840.69
2022-09-23T23:41:30.172Z,100836.03
2022-09-23T23:44:02.173Z,100831.28
2022-09-23T23:46:33.758Z,100826.59
2022-09-23T23:49:06.604Z,100827.63
2022-09-23T23:51:38.398Z,100832.66
2022-09-23T23:54:09.920Z,100835.91
2022-09-23T23:56:41.947Z,100836.19
2022-09-23T23:59:13.492Z,100847.50
